createdAt,value
2017-07-04T00:01:27.370Z,101165.98
2017-07-04T00:03:54.779Z,101164.56
2017-07-04T00:06:22.186Z,101156.69
2017-07-04T00:08:49.578Z,101164.73
2017-07-04T00:11:16.983Z,101158.32
2017-07-04T00:13:44.387Z,101155.41
2017-07-04T00:16:11.782Z,101149.35
2017-07-04T00:18:39.184Z,101156.88
2017-07-04T00:21:06.585Z,101148.14
2017-07-04T00:23:33.983Z,101148.78
2017-07-04T00:26:01.379Z,101148.21
2017-07-04T00:28:28.795Z,101150.06
2017-07-04T00:30:56.183Z,101154.91
2017-07-04T00:33:23.591Z,101152.86
2017-07-04T00:35:50.979Z,101164.00
2017-07-04T00:38:18.383Z,101161.95
2017-07-04T00:40:45.771Z,101152.61
2017-07-04T00:43:13.171Z,101155.91
2017-07-04T00:45:40.579Z,101152.73
2017-07-04T00:48:07.975Z,101148.81
2017-07-04T00:50:35.386Z,101141.96
2017-07-04T00:53:02.783Z,101145.02
2017-07-04T00:55:30.192Z,101145.86
2017-07-04T00:57:57.605Z,101148.25
2017-07-04T01:00:25.013Z,101151.03
2017-07-04T01:02:52.411Z,101152.86
2017-07-04T01:05:19.818Z,101147.70
2017-07-04T01:07:47.210Z,101152.22
2017-07-04T01:10:14.617Z,101153.16
2017-07-04T01:12:42.013Z,101152.52
2017-07-04T01:15:09.423Z,101147.92
2017-07-04T01:17:36.812Z,101151.96
2017-07-04T01:20:04.219Z,101151.01
2017-07-04T01:22:31.608Z,101150.19
2017-07-04T01:24:59.007Z,101150.86
2017-07-04T01:27:26.402Z,101144.72
2017-07-04T01:29:53.802Z,101143.05
2017-07-04T01:32:21.430Z,101142.58
2017-07-04T01:34:48.831Z,101141.87
2017-07-04T01:37:16.224Z,101143.56
2017-07-04T01:39:43.629Z,101154.47
2017-07-04T01:42:16.792Z,101149.34
2017-07-04T01:44:44.204Z,101155.91
2017-07-04T01:47:11.604Z,101152.23
2017-07-04T01:49:39.015Z,101153.91
2017-07-04T01:52:06.424Z,101147.68
2017-07-04T01:54:33.822Z,101155.39
2017-07-04T01:57:01.221Z,101156.63
2017-07-04T01:59:28.618Z,101152.17
2017-07-04T02:01:56.336Z,101156.23
2017-07-04T02:04:23.740Z,101157.94
2017-07-04T02:06:51.139Z,101159.63
2017-07-04T02:09:18.751Z,101162.59
2017-07-04T02:11:46.158Z,101169.21
2017-07-04T02:14:13.548Z,101175.88
2017-07-04T02:16:41.178Z,101169.91
2017-07-04T02:19:08.570Z,101172.62
2017-07-04T02:21:35.971Z,101162.47
2017-07-04T02:24:03.367Z,101170.05
2017-07-04T02:26:30.788Z,101175.95
2017-07-04T02:28:58.183Z,101180.27
2017-07-04T02:31:25.591Z,101177.81
2017-07-04T02:33:52.996Z,101178.99
2017-07-04T02:36:20.407Z,101180.86
2017-07-04T02:38:47.807Z,101179.70
2017-07-04T02:41:15.212Z,101174.93
2017-07-04T02:43:42.630Z,101177.55
2017-07-04T02:46:10.039Z,101176.71
2017-07-04T02:48:37.446Z,101181.08
2017-07-04T02:51:04.856Z,101183.58
2017-07-04T02:53:32.258Z,101187.31
2017-07-04T02:55:59.673Z,101188.60
2017-07-04T02:58:27.333Z,101183.08
2017-07-04T03:00:54.736Z,101186.71
2017-07-04T03:03:22.138Z,101193.38
2017-07-04T03:05:49.547Z,101199.56
2017-07-04T03:08:16.938Z,101207.16
2017-07-04T03:10:44.367Z,101212.32
2017-07-04T03:13:11.762Z,101210.42
2017-07-04T03:15:39.165Z,101217.89
2017-07-04T03:18:06.567Z,101212.80
2017-07-04T03:20:33.961Z,101214.81
2017-07-04T03:23:01.376Z,101222.22
2017-07-04T03:25:28.775Z,101220.34
2017-07-04T03:27:56.183Z,101219.42
2017-07-04T03:30:23.584Z,101219.55
2017-07-04T03:32:50.991Z,101219.28
2017-07-04T03:35:18.390Z,101228.39
2017-07-04T03:40:19.530Z,101230.23
2017-07-04T03:42:46.934Z,101228.02
2017-07-04T03:45:14.639Z,101234.95
2017-07-04T03:47:42.039Z,101235.47
2017-07-04T03:50:09.431Z,101236.02
2017-07-04T03:52:36.833Z,101231.38
2017-07-04T03:55:04.223Z,101235.16
2017-07-04T03:57:31.619Z,101238.34
2017-07-04T03:59:59.020Z,101233.80
2017-07-04T04:02:26.424Z,101239.93
2017-07-04T04:04:53.822Z,101237.92
2017-07-04T04:07:21.244Z,101240.65
2017-07-04T04:09:48.645Z,101243.46
2017-07-04T04:12:16.064Z,101242.19
2017-07-04T04:14:43.489Z,101247.45
2017-07-04T04:17:10.903Z,101243.91
2017-07-04T04:19:38.619Z,101246.64
2017-07-04T04:22:06.027Z,101238.69
2017-07-04T04:24:33.442Z,101245.84
2017-07-04T04:27:00.868Z,101255.64
2017-07-04T04:29:28.282Z,101261.36
2017-07-04T04:31:55.671Z,101262.63
2017-07-04T04:34:23.091Z,101270.25
2017-07-04T04:36:50.483Z,101267.65
2017-07-04T04:39:17.931Z,101275.48
2017-07-04T04:41:45.323Z,101271.34
2017-07-04T04:44:12.724Z,101267.55
2017-07-04T04:46:40.120Z,101274.98
2017-07-04T04:49:07.528Z,101275.97
2017-07-04T04:51:34.926Z,101278.25
2017-07-04T04:54:02.336Z,101282.48
2017-07-04T04:56:29.728Z,101282.91
2017-07-04T04:58:57.132Z,101288.34
2017-07-04T05:01:24.536Z,101285.03
2017-07-04T05:03:51.939Z,101288.58
2017-07-04T05:06:19.340Z,101290.74
2017-07-04T05:08:46.744Z,101289.52
2017-07-04T05:11:14.141Z,101289.03
2017-07-04T05:13:41.538Z,101288.91
2017-07-04T05:16:08.936Z,101288.69
2017-07-04T05:18:36.662Z,101289.92
2017-07-04T05:21:04.052Z,101291.44
2017-07-04T05:23:31.467Z,101290.83
2017-07-04T05:25:58.860Z,101295.41
2017-07-04T05:28:26.260Z,101301.34
2017-07-04T05:30:53.939Z,101300.41
2017-07-04T05:33:21.336Z,101301.58
2017-07-04T05:35:48.727Z,101305.73
2017-07-04T05:38:21.870Z,101310.19
2017-07-04T05:40:49.275Z,101310.41
2017-07-04T05:43:16.684Z,101311.30
2017-07-04T05:45:44.092Z,101312.45
2017-07-04T05:48:11.489Z,101313.71
2017-07-04T05:50:38.892Z,101313.22
2017-07-04T05:53:06.299Z,101315.89
2017-07-04T05:55:33.705Z,101320.39
2017-07-04T05:58:01.104Z,101318.63
2017-07-04T06:00:28.496Z,101318.63
2017-07-04T06:02:55.904Z,101325.76
2017-07-04T06:05:23.295Z,101323.97
2017-07-04T06:07:50.695Z,101319.47
2017-07-04T06:10:18.095Z,101322.31
2017-07-04T06:12:45.497Z,101329.23
2017-07-04T06:15:12.892Z,101327.86
2017-07-04T06:17:40.295Z,101334.70
2017-07-04T06:20:07.693Z,101339.13
2017-07-04T06:22:35.079Z,101343.20
2017-07-04T06:25:02.484Z,101337.61
2017-07-04T06:27:29.879Z,101344.31
2017-07-04T06:29:57.283Z,101348.37
2017-07-04T06:32:24.679Z,101347.09
2017-07-04T06:34:52.076Z,101345.87
2017-07-04T06:37:19.475Z,101353.11
2017-07-04T06:39:47.957Z,101345.33
2017-07-04T06:42:15.347Z,101346.89
2017-07-04T06:44:42.747Z,101344.80
2017-07-04T06:47:10.152Z,101348.79
2017-07-04T06:49:37.557Z,101346.78
2017-07-04T06:52:04.951Z,101354.31
2017-07-04T06:54:32.355Z,101351.75
2017-07-04T06:56:59.748Z,101353.93
2017-07-04T06:59:27.144Z,101356.67
2017-07-04T07:01:54.558Z,101357.95
2017-07-04T07:04:22.163Z,101359.83
2017-07-04T07:06:49.567Z,101358.61
2017-07-04T07:09:16.960Z,101365.27
2017-07-04T07:11:44.364Z,101360.59
2017-07-04T07:14:11.758Z,101362.36
2017-07-04T07:16:39.165Z,101364.85
2017-07-04T07:19:06.560Z,101368.14
2017-07-04T07:21:33.955Z,101370.38
2017-07-04T07:24:01.345Z,101367.34
2017-07-04T07:26:28.742Z,101370.88
2017-07-04T07:28:56.133Z,101374.34
2017-07-04T07:31:23.536Z,101372.86
2017-07-04T07:33:50.936Z,101380.00
2017-07-04T07:36:18.338Z,101375.00
2017-07-04T07:38:45.746Z,101380.42
2017-07-04T07:41:13.147Z,101378.15
2017-07-04T07:43:40.547Z,101371.20
2017-07-04T07:46:07.959Z,101375.49
2017-07-04T07:48:35.363Z,101375.77
2017-07-04T07:51:02.771Z,101379.25
2017-07-04T07:53:30.380Z,101384.22
2017-07-04T07:55:57.788Z,101382.92
2017-07-04T07:58:25.191Z,101386.41
2017-07-04T08:00:52.594Z,101383.86
2017-07-04T08:03:19.987Z,101381.75
2017-07-04T08:05:47.386Z,101381.02
2017-07-04T08:08:14.774Z,101379.07
2017-07-04T08:10:42.183Z,101379.34
2017-07-04T08:13:09.784Z,101390.86
2017-07-04T08:15:37.187Z,101397.36
2017-07-04T08:18:04.584Z,101392.69
2017-07-04T08:20:31.992Z,101388.80
2017-07-04T08:22:59.393Z,101394.84
2017-07-04T08:25:26.792Z,101391.12
2017-07-04T08:27:54.184Z,101401.91
2017-07-04T08:30:21.575Z,101403.70
2017-07-04T08:32:48.987Z,101397.44
2017-07-04T08:35:16.376Z,101392.03
2017-07-04T08:37:43.780Z,101391.03
2017-07-04T08:40:11.170Z,101394.61
2017-07-04T08:42:38.578Z,101394.94
2017-07-04T08:45:05.968Z,101394.52
2017-07-04T08:47:33.375Z,101396.27
2017-07-04T08:50:00.769Z,101396.25
2017-07-04T08:52:28.172Z,101397.86
2017-07-04T08:54:55.564Z,101393.15
2017-07-04T08:57:22.964Z,101387.80
2017-07-04T08:59:50.370Z,101395.51
2017-07-04T09:02:17.764Z,101396.61
2017-07-04T09:04:45.164Z,101399.55
2017-07-04T09:07:12.568Z,101397.87
2017-07-04T09:09:39.955Z,101397.56
2017-07-04T09:12:07.356Z,101398.47
2017-07-04T09:14:34.745Z,101400.68
2017-07-04T09:17:02.151Z,101408.44
2017-07-04T09:19:29.542Z,101406.05
2017-07-04T09:21:56.940Z,101407.94
2017-07-04T09:24:24.339Z,101410.70
2017-07-04T09:26:51.731Z,101402.20
2017-07-04T09:29:19.352Z,101404.06
2017-07-04T09:31:46.740Z,101408.16
2017-07-04T09:34:14.140Z,101403.88
2017-07-04T09:36:41.527Z,101412.27
2017-07-04T09:39:08.927Z,101411.56
2017-07-04T09:41:36.324Z,101409.33
2017-07-04T09:44:03.931Z,101418.73
2017-07-04T09:46:31.336Z,101420.73
2017-07-04T09:48:58.744Z,101420.64
2017-07-04T09:51:26.132Z,101417.81
2017-07-04T09:53:53.541Z,101422.50
2017-07-04T09:56:20.935Z,101411.92
2017-07-04T09:58:48.341Z,101416.47
2017-07-04T10:01:15.936Z,101418.92
2017-07-04T10:03:43.336Z,101422.59
2017-07-04T10:06:10.743Z,101429.20
2017-07-04T10:08:38.140Z,101426.95
2017-07-04T10:11:05.527Z,101429.98
2017-07-04T10:13:32.927Z,101428.39
2017-07-04T10:16:00.314Z,101419.34
2017-07-04T10:18:27.711Z,101419.79
2017-07-04T10:20:55.111Z,101417.83
2017-07-04T10:23:22.532Z,101420.40
2017-07-04T10:25:49.908Z,101417.45
2017-07-04T10:28:17.311Z,101419.84
2017-07-04T10:30:44.718Z,101419.69
2017-07-04T10:33:12.125Z,101418.08
2017-07-04T10:35:39.525Z,101413.09
2017-07-04T10:38:06.926Z,101418.88
2017-07-04T10:40:34.538Z,101413.84
2017-07-04T10:43:01.929Z,101411.20
2017-07-04T10:45:29.327Z,101409.92
2017-07-04T10:47:56.727Z,101409.00
2017-07-04T10:50:24.127Z,101405.34
2017-07-04T10:52:51.522Z,101414.06
2017-07-04T10:55:18.921Z,101410.41
2017-07-04T10:57:46.322Z,101410.63
2017-07-04T11:00:13.782Z,101414.98
2017-07-04T11:02:41.167Z,101418.78
2017-07-04T11:05:08.572Z,101416.86
2017-07-04T11:07:35.955Z,101400.66
2017-07-04T11:10:03.352Z,101410.47
2017-07-04T11:12:30.745Z,101415.57
2017-07-04T11:14:58.137Z,101419.27
2017-07-04T11:17:25.539Z,101413.09
2017-07-04T11:19:52.939Z,101422.28
2017-07-04T11:22:20.339Z,101420.88
2017-07-04T11:24:47.738Z,101420.53
2017-07-04T11:27:15.128Z,101420.77
2017-07-04T11:29:42.538Z,101416.36
2017-07-04T11:32:09.928Z,101421.84
2017-07-04T11:34:37.339Z,101416.53
2017-07-04T11:37:04.727Z,101416.75
2017-07-04T11:39:32.131Z,101419.16
2017-07-04T11:41:59.521Z,101413.83
2017-07-04T11:44:26.924Z,101421.69
2017-07-04T11:46:54.319Z,101422.29
2017-07-04T11:49:22.495Z,101422.13
2017-07-04T11:51:49.891Z,101420.20
2017-07-04T11:54:17.331Z,101420.03
2017-07-04T11:56:44.675Z,101419.13
2017-07-04T11:59:12.074Z,101421.24
2017-07-04T12:01:39.477Z,101425.02
2017-07-04T12:04:07.082Z,101424.59
2017-07-04T12:06:34.475Z,101423.80
2017-07-04T12:09:02.079Z,101419.64
2017-07-04T12:11:29.486Z,101424.17
2017-07-04T12:13:56.879Z,101423.45
2017-07-04T12:16:24.287Z,101423.34
2017-07-04T12:18:51.735Z,101422.44
2017-07-04T12:21:19.133Z,101417.24
2017-07-04T12:23:46.527Z,101421.19
2017-07-04T12:26:14.163Z,101429.03
2017-07-04T12:28:41.547Z,101420.39
2017-07-04T12:31:08.948Z,101413.98
2017-07-04T12:33:36.348Z,101418.17
2017-07-04T12:36:03.768Z,101419.55
2017-07-04T12:38:31.163Z,101413.42
2017-07-04T12:40:58.563Z,101412.61
2017-07-04T12:43:25.948Z,101412.08
2017-07-04T12:45:53.355Z,101415.28
2017-07-04T12:48:21.018Z,101407.69
2017-07-04T12:50:48.415Z,101411.76
2017-07-04T12:53:15.811Z,101414.06
2017-07-04T12:55:43.211Z,101412.48
2017-07-04T12:58:10.604Z,101416.54
2017-07-04T13:00:38.011Z,101417.88
2017-07-04T13:03:05.396Z,101415.93
2017-07-04T13:05:32.791Z,101416.85
2017-07-04T13:08:00.183Z,101413.45
2017-07-04T13:10:27.576Z,101419.48
2017-07-04T13:12:54.985Z,101411.66
2017-07-04T13:15:22.428Z,101411.83
2017-07-04T13:17:49.784Z,101402.16
2017-07-04T13:20:17.177Z,101400.17
2017-07-04T13:22:44.581Z,101403.00
2017-07-04T13:25:11.969Z,101406.39
2017-07-04T13:27:39.368Z,101402.64
2017-07-04T13:30:06.761Z,101409.78
2017-07-04T13:32:34.375Z,101404.01
2017-07-04T13:35:01.770Z,101402.75
2017-07-04T13:37:29.163Z,101395.18
2017-07-04T13:39:56.561Z,101399.39
2017-07-04T13:42:23.960Z,101399.13
2017-07-04T13:44:51.364Z,101394.88
2017-07-04T13:47:18.763Z,101410.11
2017-07-04T13:49:46.159Z,101406.10
2017-07-04T13:52:13.568Z,101410.63
2017-07-04T13:54:41.173Z,101408.83
2017-07-04T13:57:08.573Z,101385.95
2017-07-04T13:59:35.964Z,101389.52
2017-07-04T14:02:03.363Z,101396.66
2017-07-04T14:04:30.754Z,101394.80
2017-07-04T14:06:58.193Z,101408.55
2017-07-04T14:09:25.581Z,101408.77
2017-07-04T14:11:52.984Z,101404.44
2017-07-04T14:14:20.376Z,101407.74
2017-07-04T14:16:49.646Z,101401.97
2017-07-04T14:19:17.040Z,101401.31
2017-07-04T14:21:44.815Z,101393.02
2017-07-04T14:24:12.230Z,101398.14
2017-07-04T14:26:39.620Z,101394.05
2017-07-04T14:29:07.040Z,101389.70
2017-07-04T14:31:34.435Z,101391.16
2017-07-04T14:36:36.740Z,101388.77
2017-07-04T14:39:04.140Z,101390.68
2017-07-04T14:41:31.531Z,101393.28
2017-07-04T14:43:58.942Z,101397.29
2017-07-04T14:46:26.336Z,101399.35
2017-07-04T14:48:53.736Z,101400.52
2017-07-04T14:51:21.133Z,101390.16
2017-07-04T14:53:48.535Z,101398.13
2017-07-04T14:56:15.931Z,101396.56
2017-07-04T14:58:43.333Z,101395.36
2017-07-04T15:01:10.936Z,101391.88
2017-07-04T15:03:38.624Z,101391.81
2017-07-04T15:06:06.025Z,101386.95
2017-07-04T15:08:33.419Z,101384.33
2017-07-04T15:11:00.807Z,101386.94
2017-07-04T15:13:28.210Z,101379.45
2017-07-04T15:15:55.594Z,101378.97
2017-07-04T15:18:23.013Z,101387.27
2017-07-04T15:20:50.617Z,101384.74
2017-07-04T15:23:18.011Z,101386.77
2017-07-04T15:25:45.399Z,101380.29
2017-07-04T15:28:12.800Z,101382.05
2017-07-04T15:30:40.412Z,101374.95
2017-07-04T15:33:07.819Z,101380.43
2017-07-04T15:35:35.217Z,101383.15
2017-07-04T15:38:02.619Z,101377.67
2017-07-04T15:40:30.053Z,101383.55
2017-07-04T15:42:57.451Z,101380.34
2017-07-04T15:45:24.867Z,101378.41
2017-07-04T15:47:52.272Z,101377.52
2017-07-04T15:50:19.672Z,101369.92
2017-07-04T15:52:47.065Z,101371.45
2017-07-04T15:55:14.460Z,101367.29
2017-07-04T15:57:42.064Z,101370.79
2017-07-04T16:00:09.472Z,101368.76
2017-07-04T16:02:36.866Z,101365.39
2017-07-04T16:05:04.274Z,101366.22
2017-07-04T16:07:31.672Z,101363.59
2017-07-04T16:09:59.088Z,101360.98
2017-07-04T16:12:26.468Z,101361.58
2017-07-04T16:14:53.864Z,101371.01
2017-07-04T16:17:21.253Z,101362.73
2017-07-04T16:19:48.648Z,101366.70
2017-07-04T16:22:16.038Z,101367.02
2017-07-04T16:24:43.439Z,101362.20
2017-07-04T16:27:10.831Z,101363.05
2017-07-04T16:29:38.239Z,101354.06
2017-07-04T16:32:05.633Z,101350.77
2017-07-04T16:34:33.024Z,101360.53
2017-07-04T16:37:00.415Z,101358.56
2017-07-04T16:39:27.818Z,101354.98
2017-07-04T16:41:55.208Z,101356.11
2017-07-04T16:44:22.609Z,101363.94
2017-07-04T16:46:50.010Z,101353.09
2017-07-04T16:49:17.411Z,101357.86
2017-07-04T16:51:44.816Z,101352.03
2017-07-04T16:54:12.224Z,101353.72
2017-07-04T16:56:39.621Z,101353.84
2017-07-04T16:59:07.017Z,101358.19
2017-07-04T17:01:34.416Z,101348.14
2017-07-04T17:04:01.808Z,101352.77
2017-07-04T17:06:29.210Z,101349.80
2017-07-04T17:08:56.607Z,101348.22
2017-07-04T17:11:23.996Z,101341.81
2017-07-04T17:13:51.387Z,101349.31
2017-07-04T17:16:18.779Z,101342.56
2017-07-04T17:18:46.180Z,101348.32
2017-07-04T17:21:13.583Z,101350.47
2017-07-04T17:23:40.968Z,101355.66
2017-07-04T17:26:08.363Z,101351.01
2017-07-04T17:28:35.758Z,101348.38
2017-07-04T17:31:03.163Z,101348.42
2017-07-04T17:33:30.548Z,101344.33
2017-07-04T17:35:57.976Z,101346.89
2017-07-04T17:38:25.375Z,101351.54
2017-07-04T17:40:52.783Z,101352.21
2017-07-04T17:43:20.181Z,101351.14
2017-07-04T17:45:47.586Z,101354.80
2017-07-04T17:48:14.982Z,101352.11
2017-07-04T17:50:42.384Z,101359.31
2017-07-04T17:53:09.776Z,101351.67
2017-07-04T17:55:37.384Z,101351.11
2017-07-04T17:58:04.790Z,101354.95
2017-07-04T18:00:32.184Z,101348.96
2017-07-04T18:02:59.627Z,101350.02
2017-07-04T18:05:27.011Z,101354.47
2017-07-04T18:07:54.409Z,101355.87
2017-07-04T18:10:21.799Z,101354.90
2017-07-04T18:12:49.199Z,101351.62
2017-07-04T18:15:16.589Z,101356.49
2017-07-04T18:17:43.991Z,101359.20
2017-07-04T18:20:11.386Z,101359.86
2017-07-04T18:22:38.775Z,101359.02
2017-07-04T18:25:06.164Z,101358.16
2017-07-04T18:27:33.559Z,101356.39
2017-07-04T18:30:00.951Z,101349.60
2017-07-04T18:32:28.352Z,101347.45
2017-07-04T18:34:55.743Z,101348.22
2017-07-04T18:37:23.140Z,101344.99
2017-07-04T18:39:50.527Z,101349.16
2017-07-04T18:42:17.928Z,101352.16
2017-07-04T18:44:45.319Z,101354.16
2017-07-04T18:47:12.711Z,101358.31
2017-07-04T18:49:40.099Z,101356.33
2017-07-04T18:52:07.497Z,101357.39
2017-07-04T18:54:35.124Z,101355.03
2017-07-04T18:57:02.519Z,101353.95
2017-07-04T18:59:29.910Z,101352.46
2017-07-04T19:01:57.315Z,101353.36
2017-07-04T19:04:24.784Z,101350.72
2017-07-04T19:06:52.188Z,101347.73
2017-07-04T19:09:19.584Z,101355.03
2017-07-04T19:11:46.987Z,101352.68
2017-07-04T19:14:14.412Z,101350.77
2017-07-04T19:16:41.811Z,101348.25
2017-07-04T19:19:09.207Z,101353.38
2017-07-04T19:21:36.622Z,101350.39
2017-07-04T19:24:04.096Z,101353.88
2017-07-04T19:26:31.643Z,101346.34
2017-07-04T19:28:59.057Z,101353.52
2017-07-04T19:31:26.527Z,101358.23
2017-07-04T19:33:53.915Z,101358.06
2017-07-04T19:36:21.303Z,101357.42
2017-07-04T19:38:48.702Z,101356.47
2017-07-04T19:41:16.106Z,101358.69
2017-07-04T19:43:43.503Z,101364.37
2017-07-04T19:46:11.442Z,101361.29
2017-07-04T19:48:38.891Z,101361.03
2017-07-04T19:51:06.283Z,101376.39
2017-07-04T19:53:34.010Z,101376.69
2017-07-04T19:56:01.471Z,101385.85
2017-07-04T19:58:28.891Z,101386.20
2017-07-04T20:00:56.285Z,101392.87
2017-07-04T20:03:23.675Z,101388.64
2017-07-04T20:05:51.076Z,101394.08
2017-07-04T20:08:18.468Z,101393.79
2017-07-04T20:10:45.860Z,101397.98
2017-07-04T20:13:13.260Z,101390.27
2017-07-04T20:15:40.652Z,101396.28
2017-07-04T20:18:08.374Z,101397.02
2017-07-04T20:20:35.768Z,101395.38
2017-07-04T20:23:03.173Z,101393.80
2017-07-04T20:25:30.566Z,101397.58
2017-07-04T20:27:58.203Z,101394.71
2017-07-04T20:30:25.601Z,101392.21
2017-07-04T20:32:53.004Z,101391.19
2017-07-04T20:35:20.387Z,101401.89
2017-07-04T20:37:47.785Z,101395.50
2017-07-04T20:40:15.180Z,101394.27
2017-07-04T20:42:42.570Z,101400.77
2017-07-04T20:45:09.971Z,101392.40
2017-07-04T20:47:37.374Z,101393.03
2017-07-04T20:50:04.763Z,101390.94
2017-07-04T20:52:32.153Z,101387.38
2017-07-04T20:54:59.552Z,101393.79
2017-07-04T20:57:26.944Z,101387.59
2017-07-04T20:59:54.344Z,101385.94
2017-07-04T21:02:21.736Z,101380.67
2017-07-04T21:04:49.131Z,101375.50
2017-07-04T21:07:16.533Z,101381.31
2017-07-04T21:09:43.914Z,101379.03
2017-07-04T21:12:11.300Z,101381.30
2017-07-04T21:14:38.705Z,101377.34
2017-07-04T21:17:06.098Z,101375.63
2017-07-04T21:19:33.496Z,101380.98
2017-07-04T21:24:34.928Z,101370.23
2017-07-04T21:27:02.384Z,101374.15
2017-07-04T21:29:29.791Z,101376.33
2017-07-04T21:31:57.189Z,101377.27
2017-07-04T21:34:24.586Z,101385.63
2017-07-04T21:36:51.978Z,101387.82
2017-07-04T21:39:19.387Z,101384.02
2017-07-04T21:41:46.777Z,101386.89
2017-07-04T21:44:14.164Z,101378.36
2017-07-04T21:46:41.567Z,101377.86
2017-07-04T21:49:08.960Z,101369.09
2017-07-04T21:51:36.362Z,101367.41
2017-07-04T21:54:03.775Z,101362.34
2017-07-04T21:56:31.167Z,101370.52
2017-07-04T21:58:58.558Z,101371.56
2017-07-04T22:01:25.960Z,101369.78
2017-07-04T22:03:53.360Z,101367.55
2017-07-04T22:06:20.761Z,101372.77
2017-07-04T22:08:48.153Z,101369.73
2017-07-04T22:11:15.549Z,101368.17
2017-07-04T22:13:42.943Z,101371.02
2017-07-04T22:16:10.337Z,101367.83
2017-07-04T22:18:37.956Z,101355.70
2017-07-04T22:21:05.356Z,101361.41
2017-07-04T22:23:32.959Z,101358.50
2017-07-04T22:26:00.360Z,101364.88
2017-07-04T22:28:27.751Z,101358.30
2017-07-04T22:30:55.347Z,101364.25
2017-07-04T22:33:22.752Z,101360.48
2017-07-04T22:35:50.152Z,101355.06
2017-07-04T22:38:17.541Z,101358.47
2017-07-04T22:40:45.166Z,101358.00
2017-07-04T22:43:12.556Z,101363.04
2017-07-04T22:45:40.179Z,101360.86
2017-07-04T22:48:07.581Z,101352.27
2017-07-04T22:50:34.976Z,101354.77
2017-07-04T22:53:02.362Z,101349.91
2017-07-04T22:55:29.756Z,101351.30
2017-07-04T22:57:57.149Z,101354.67
2017-07-04T23:00:24.555Z,101364.27
2017-07-04T23:02:51.944Z,101360.33
2017-07-04T23:05:19.339Z,101364.86
2017-07-04T23:07:46.729Z,101363.23
2017-07-04T23:10:14.118Z,101364.44
2017-07-04T23:12:41.516Z,101360.28
2017-07-04T23:15:08.906Z,101355.63
2017-07-04T23:17:36.304Z,101351.60
2017-07-04T23:20:03.691Z,101351.52
2017-07-04T23:22:31.083Z,101353.86
2017-07-04T23:24:58.471Z,101346.16
2017-07-04T23:27:25.859Z,101339.15
2017-07-04T23:29:53.252Z,101348.49
2017-07-04T23:32:20.652Z,101340.87
2017-07-04T23:34:48.040Z,101339.02
2017-07-04T23:37:15.439Z,101336.55
2017-07-04T23:39:42.829Z,101333.31
2017-07-04T23:42:10.232Z,101337.81
2017-07-04T23:44:37.632Z,101329.84
2017-07-04T23:47:05.884Z,101333.23
2017-07-04T23:49:33.271Z,101332.81
2017-07-04T23:52:00.673Z,101332.60
2017-07-04T23:54:28.070Z,101332.60
2017-07-04T23:56:55.671Z,101331.31
2017-07-04T23:59:23.067Z,101323.89
